Itajuipe, Brazil
Current Conditions -  °F | °C
As of 7:00 PM on Wednesday 22 Oct 2014 (Local Time) from SBIL Reporting Station
Broken Clouds Broken Clouds  
Wind Chill: 77°   Ceiling: 7000
Heat Index: 79°   Visibility: 6mi
Dew Point: 66°   Wind: 12mph
Humidity: 69%   Direction: 160°SSE
Pressure: 30.03"   Gusts: NA
Location:  14.68°S, 39.37°W
Report Text: SBIL 222200Z 16010KT 9999 SCT020 BKN070 25/19 Q1017
Loading
Personal Weather Stations






























Interactive Weather Map
Tropical Storm Tracking
New forecast layout! Learn more

10-Day Weather Forecast

Advertisements
Track Severe Weather on mobile